createdAt,value
2022-08-24T00:02:27.546Z,21.60
2022-08-24T00:07:30.219Z,21.55
2022-08-24T00:12:32.719Z,21.59
2022-08-24T00:17:35.207Z,21.48
2022-08-24T00:22:39.151Z,21.52
2022-08-24T00:27:42.674Z,21.15
2022-08-24T00:32:46.636Z,21.31
2022-08-24T00:37:51.309Z,21.12
2022-08-24T00:42:55.444Z,21.18
2022-08-24T00:48:05.743Z,20.94
2022-08-24T00:53:24.817Z,21.16
2022-08-24T00:58:35.269Z,21.04
2022-08-24T01:03:38.617Z,21.12
2022-08-24T01:08:44.603Z,21.17
2022-08-24T01:13:50.051Z,21.19
2022-08-24T01:18:52.896Z,20.87
2022-08-24T01:24:02.125Z,20.88
2022-08-24T01:29:11.114Z,21.16
2022-08-24T01:34:13.553Z,20.60
2022-08-24T01:39:22.453Z,21.06
2022-08-24T01:44:27.303Z,21.22
2022-08-24T01:49:32.957Z,21.23
2022-08-24T01:54:36.376Z,21.26
2022-08-24T01:59:38.918Z,21.27
2022-08-24T02:04:44.281Z,21.49
2022-08-24T02:09:48.582Z,21.81
2022-08-24T02:14:52.580Z,21.61
2022-08-24T02:19:55.249Z,21.57
2022-08-24T02:24:57.828Z,21.38
2022-08-24T02:30:00.330Z,21.28
2022-08-24T02:35:02.952Z,21.28
2022-08-24T02:40:07.877Z,21.33
2022-08-24T02:45:11.373Z,21.32
2022-08-24T02:50:16.243Z,21.32
2022-08-24T02:55:20.445Z,21.33
2022-08-24T03:00:28.030Z,21.44
2022-08-24T03:05:32.039Z,21.50
2022-08-24T03:10:35.654Z,21.41
2022-08-24T03:15:39.493Z,21.48
2022-08-24T03:20:42.030Z,21.63
2022-08-24T03:25:44.954Z,21.64
2022-08-24T03:30:48.575Z,21.52
2022-08-24T03:35:53.628Z,21.51
2022-08-24T03:40:58.021Z,21.50
2022-08-24T03:46:03.193Z,21.46
2022-08-24T03:51:06.088Z,21.45
2022-08-24T03:56:09.698Z,21.51
2022-08-24T04:01:13.253Z,21.63
2022-08-24T04:06:22.818Z,21.54
2022-08-24T04:11:27.451Z,21.66
2022-08-24T04:16:30.387Z,21.72
2022-08-24T04:21:46.095Z,21.85
2022-08-24T04:26:49.434Z,22.34
2022-08-24T04:31:53.661Z,22.11
2022-08-24T04:36:57.537Z,22.22
2022-08-24T04:42:03.629Z,22.16
2022-08-24T04:47:11.225Z,22.25
2022-08-24T04:52:14.938Z,22.19
2022-08-24T04:57:18.705Z,22.27
2022-08-24T05:02:23.070Z,22.08
2022-08-24T05:07:30.126Z,22.40
2022-08-24T05:12:33.144Z,22.13
2022-08-24T05:17:41.079Z,22.23
2022-08-24T05:22:45.257Z,22.31
2022-08-24T05:27:47.911Z,22.29
2022-08-24T05:32:50.966Z,22.51
2022-08-24T05:37:54.617Z,22.56
2022-08-24T05:43:00.024Z,22.82
2022-08-24T05:48:02.543Z,23.00
2022-08-24T05:53:25.474Z,23.29
2022-08-24T05:58:30.883Z,23.63
2022-08-24T06:03:38.196Z,24.35
2022-08-24T06:08:46.496Z,24.85
2022-08-24T06:13:56.229Z,25.12
2022-08-24T06:19:03.336Z,25.22
2022-08-24T06:24:07.563Z,25.17
2022-08-24T06:29:10.648Z,24.95
2022-08-24T06:34:20.065Z,25.09
2022-08-24T06:39:23.929Z,25.39
2022-08-24T06:44:31.274Z,25.56
2022-08-24T06:49:47.072Z,25.85
2022-08-24T06:54:50.286Z,25.84
2022-08-24T06:59:53.371Z,25.84
2022-08-24T07:04:55.990Z,26.14
2022-08-24T07:10:16.969Z,25.61
2022-08-24T07:15:27.068Z,25.82
2022-08-24T07:20:50.442Z,25.47
2022-08-24T07:26:20.906Z,26.02
2022-08-24T07:31:27.081Z,25.14
2022-08-24T07:36:44.723Z,25.37
2022-08-24T07:47:36.349Z,26.29
2022-08-24T07:52:33.688Z,26.21
2022-08-24T07:57:39.376Z,26.17
2022-08-24T08:02:46.628Z,26.13
2022-08-24T08:07:52.586Z,26.11
2022-08-24T08:12:56.272Z,26.20
2022-08-24T08:17:59.643Z,26.43
2022-08-24T08:23:25.529Z,26.44
2022-08-24T08:28:42.867Z,26.49
2022-08-24T08:33:45.844Z,26.55
2022-08-24T08:38:49.015Z,26.40
2022-08-24T08:44:01.369Z,26.86
2022-08-24T08:49:40.941Z,26.95
2022-08-24T08:54:58.921Z,27.36
2022-08-24T09:00:16.071Z,27.19
2022-08-24T09:05:31.466Z,27.72
2022-08-24T09:11:09.013Z,27.50
2022-08-24T09:16:17.517Z,27.88
2022-08-24T09:21:39.347Z,27.77
2022-08-24T09:27:00.697Z,27.99
2022-08-24T09:32:28.963Z,28.11
2022-08-24T09:37:45.863Z,28.22
2022-08-24T09:43:19.036Z,28.78
2022-08-24T09:48:46.501Z,28.90
2022-08-24T09:54:13.534Z,29.09
2022-08-24T09:59:31.288Z,29.24
2022-08-24T10:05:15.366Z,29.21
2022-08-24T10:10:23.872Z,29.33
2022-08-24T10:16:03.371Z,29.44
2022-08-24T10:21:37.286Z,29.55
2022-08-24T10:26:58.071Z,30.09
2022-08-24T10:32:19.618Z,30.34
2022-08-24T10:37:44.662Z,30.33
2022-08-24T10:43:33.070Z,30.24
2022-08-24T10:48:35.416Z,30.43
2022-08-24T10:53:38.666Z,30.33
2022-08-24T10:59:12.127Z,30.14
2022-08-24T11:04:27.576Z,30.58
2022-08-24T11:09:51.773Z,30.33
2022-08-24T11:14:57.062Z,30.71
2022-08-24T11:19:59.840Z,30.36
2022-08-24T11:25:21.877Z,30.67
2022-08-24T11:30:28.304Z,30.78
2022-08-24T11:35:33.982Z,30.69
2022-08-24T11:40:40.978Z,30.37
2022-08-24T11:46:08.169Z,30.28
2022-08-24T11:51:21.045Z,30.45
2022-08-24T11:56:30.814Z,30.37
2022-08-24T12:01:44.533Z,30.77
2022-08-24T12:06:55.819Z,31.02
2022-08-24T12:12:13.981Z,30.86
2022-08-24T12:17:45.563Z,30.56
2022-08-24T12:22:49.458Z,30.27
2022-08-24T12:27:53.237Z,30.86
2022-08-24T12:32:59.990Z,31.39
2022-08-24T12:38:28.594Z,31.10
2022-08-24T12:43:40.906Z,31.47
2022-08-24T12:48:56.233Z,30.96
2022-08-24T12:54:13.796Z,31.24
2022-08-24T12:59:22.987Z,31.46
2022-08-24T13:04:36.246Z,31.13
2022-08-24T13:10:04.648Z,31.16
2022-08-24T13:15:31.920Z,31.27
2022-08-24T13:20:37.311Z,31.38
2022-08-24T13:25:52.221Z,31.80
2022-08-24T13:30:54.781Z,31.42
2022-08-24T13:36:05.475Z,31.40
2022-08-24T13:41:41.453Z,31.23
2022-08-24T13:47:08.280Z,31.04
2022-08-24T13:52:22.825Z,31.50
2022-08-24T13:57:28.245Z,31.46
2022-08-24T14:02:49.208Z,31.72
2022-08-24T14:08:13.231Z,31.54
2022-08-24T14:13:37.166Z,31.42
2022-08-24T14:18:53.885Z,30.93
2022-08-24T14:24:09.879Z,30.68
2022-08-24T14:29:18.318Z,30.61
2022-08-24T14:35:00.787Z,30.56
2022-08-24T14:40:27.374Z,30.50
2022-08-24T14:45:54.963Z,30.26
2022-08-24T14:51:09.182Z,30.37
2022-08-24T14:56:37.569Z,30.49
2022-08-24T15:01:43.658Z,30.45
2022-08-24T15:06:53.983Z,30.43
2022-08-24T15:12:33.465Z,30.31
2022-08-24T15:18:00.019Z,30.14
2022-08-24T15:23:11.981Z,30.06
2022-08-24T15:28:24.956Z,29.88
2022-08-24T15:33:29.033Z,29.73
2022-08-24T15:38:31.607Z,29.69
2022-08-24T15:43:41.550Z,29.45
2022-08-24T15:48:48.245Z,29.47
2022-08-24T15:53:51.163Z,29.35
2022-08-24T15:58:53.735Z,29.21
2022-08-24T16:03:59.974Z,29.23
2022-08-24T16:09:19.790Z,29.11
2022-08-24T16:14:29.651Z,28.90
2022-08-24T16:19:34.998Z,28.75
2022-08-24T16:24:40.118Z,28.54
2022-08-24T16:29:42.912Z,28.46
2022-08-24T16:34:54.813Z,28.32
2022-08-24T16:39:57.202Z,28.20
2022-08-24T16:45:00.012Z,28.12
2022-08-24T16:50:03.356Z,27.99
2022-08-24T16:55:06.704Z,27.76
2022-08-24T17:00:17.088Z,27.59
2022-08-24T17:05:19.984Z,27.51
2022-08-24T17:10:24.284Z,27.36
2022-08-24T17:15:26.744Z,27.13
2022-08-24T17:20:29.933Z,27.07
2022-08-24T17:25:32.585Z,26.80
2022-08-24T17:30:36.337Z,26.82
2022-08-24T17:35:40.540Z,26.55
2022-08-24T17:40:43.023Z,26.29
2022-08-24T17:45:45.553Z,26.19
2022-08-24T17:50:47.910Z,25.86
2022-08-24T17:55:50.586Z,25.64
2022-08-24T18:00:53.533Z,25.60
2022-08-24T18:05:56.067Z,25.81
2022-08-24T18:10:59.033Z,25.60
2022-08-24T18:16:01.725Z,25.45
2022-08-24T18:21:04.209Z,25.25
2022-08-24T18:26:06.867Z,25.07
2022-08-24T18:31:10.591Z,25.13
2022-08-24T18:36:13.153Z,25.05
2022-08-24T18:41:15.958Z,24.92
2022-08-24T18:46:18.377Z,24.75
2022-08-24T18:51:21.321Z,24.26
2022-08-24T18:56:24.630Z,24.57
2022-08-24T19:01:28.178Z,24.43
2022-08-24T19:06:30.594Z,24.41
2022-08-24T19:11:33.092Z,24.33
2022-08-24T19:16:35.878Z,23.97
2022-08-24T19:21:39.168Z,23.74
2022-08-24T19:26:43.440Z,23.67
2022-08-24T19:31:46.193Z,23.66
2022-08-24T19:36:48.765Z,23.92
2022-08-24T19:41:51.930Z,23.84
2022-08-24T19:46:56.083Z,23.76
2022-08-24T19:51:59.664Z,23.73
2022-08-24T19:57:02.407Z,23.74
2022-08-24T20:02:05.414Z,23.56
2022-08-24T20:07:09.219Z,23.59
2022-08-24T20:12:12.394Z,23.56
2022-08-24T20:17:15.034Z,23.38
2022-08-24T20:22:18.616Z,23.46
2022-08-24T20:27:24.436Z,23.33
2022-08-24T20:32:29.520Z,23.20
2022-08-24T20:37:33.257Z,23.23
2022-08-24T20:42:35.926Z,23.24
2022-08-24T20:47:50.302Z,23.26
2022-08-24T20:52:54.123Z,22.89
2022-08-24T20:58:00.848Z,23.14
2022-08-24T21:03:03.639Z,23.05
2022-08-24T21:08:06.295Z,22.86
2022-08-24T21:13:08.714Z,22.98
2022-08-24T21:18:11.271Z,22.80
2022-08-24T21:23:13.887Z,22.96
2022-08-24T21:28:16.811Z,22.87
2022-08-24T21:33:37.836Z,22.77
2022-08-24T21:38:40.328Z,22.76
2022-08-24T21:43:47.785Z,22.68
2022-08-24T21:48:50.292Z,22.84
2022-08-24T21:53:57.461Z,22.85
2022-08-24T21:59:03.205Z,22.94
2022-08-24T22:04:06.335Z,22.88
2022-08-24T22:09:08.850Z,22.99
2022-08-24T22:14:11.487Z,22.91
2022-08-24T22:19:14.057Z,23.16
2022-08-24T22:24:17.042Z,23.11
2022-08-24T22:29:19.486Z,23.04
2022-08-24T22:34:26.341Z,23.16
2022-08-24T22:39:29.348Z,23.13
2022-08-24T22:44:33.008Z,23.19
2022-08-24T22:49:40.770Z,22.93
2022-08-24T22:54:43.723Z,22.83
2022-08-24T22:59:46.358Z,22.86
2022-08-24T23:04:51.111Z,22.94
2022-08-24T23:09:53.702Z,23.24
2022-08-24T23:14:56.525Z,23.16
2022-08-24T23:20:04.777Z,23.27
2022-08-24T23:25:09.819Z,23.61
2022-08-24T23:30:13.875Z,23.55
2022-08-24T23:35:16.219Z,23.43
2022-08-24T23:40:20.263Z,23.28
2022-08-24T23:45:28.569Z,23.24
2022-08-24T23:50:34.382Z,23.09
2022-08-24T23:55:36.889Z,23.01
